createdAt,value
2018-12-05T00:00:02.023Z,24.60
2018-12-05T00:02:30.943Z,26.17
2018-12-05T00:04:59.319Z,28.37
2018-12-05T00:07:27.993Z,29.53
2018-12-05T00:09:56.701Z,24.30
2018-12-05T00:12:25.995Z,23.17
2018-12-05T00:14:55.555Z,25.77
2018-12-05T00:17:24.011Z,23.30
2018-12-05T00:19:52.468Z,23.23
2018-12-05T00:22:21.071Z,23.80
2018-12-05T00:24:49.509Z,20.50
2018-12-05T00:27:19.415Z,24.17
2018-12-05T00:29:47.786Z,24.33
2018-12-05T00:32:16.164Z,23.90
2018-12-05T00:34:44.521Z,25.90
2018-12-05T00:37:12.892Z,28.47
2018-12-05T00:39:41.297Z,29.83
2018-12-05T00:42:10.703Z,26.17
2018-12-05T00:44:39.503Z,24.37
2018-12-05T00:47:09.927Z,26.77
2018-12-05T00:49:38.313Z,24.87
2018-12-05T00:52:07.575Z,24.40
2018-12-05T00:54:35.996Z,24.87
2018-12-05T00:57:05.260Z,26.70
2018-12-05T00:59:34.147Z,27.87
2018-12-05T01:02:03.401Z,26.20
2018-12-05T01:04:32.211Z,29.13
2018-12-05T01:07:01.019Z,26.67
2018-12-05T01:09:29.405Z,29.80
2018-12-05T01:11:58.187Z,31.53
2018-12-05T01:14:26.534Z,28.77
2018-12-05T01:16:54.932Z,34.00
2018-12-05T01:19:23.514Z,32.70
2018-12-05T01:21:51.900Z,22.37
2018-12-05T01:24:21.045Z,30.57
2018-12-05T01:26:51.390Z,34.13
2018-12-05T01:29:20.035Z,34.60
2018-12-05T01:31:48.391Z,32.70
2018-12-05T01:34:16.763Z,35.43
2018-12-05T01:36:45.140Z,35.43
2018-12-05T01:39:14.024Z,31.00
2018-12-05T01:41:42.386Z,36.07
2018-12-05T01:44:12.946Z,31.23
2018-12-05T01:46:42.678Z,32.63
2018-12-05T01:49:11.036Z,36.43
2018-12-05T01:51:39.366Z,40.70
2018-12-05T01:54:08.024Z,38.27
2018-12-05T01:56:36.431Z,41.77
2018-12-05T01:59:05.994Z,39.37
2018-12-05T02:01:36.226Z,44.47
2018-12-05T02:04:05.726Z,40.23
2018-12-05T02:06:34.144Z,41.47
2018-12-05T02:09:02.983Z,46.73
2018-12-05T02:11:31.373Z,44.60
2018-12-05T02:14:01.150Z,42.63
2018-12-05T02:16:29.529Z,35.07
2018-12-05T02:18:57.952Z,41.93
2018-12-05T02:21:26.809Z,37.43
2018-12-05T02:23:55.231Z,35.90
2018-12-05T02:26:23.581Z,38.70
2018-12-05T02:28:53.335Z,37.30
2018-12-05T02:31:21.746Z,34.73
2018-12-05T02:33:50.145Z,34.83
2018-12-05T02:36:19.350Z,41.30
2018-12-05T02:38:47.737Z,36.93
2018-12-05T02:41:16.095Z,45.57
2018-12-05T02:43:45.479Z,33.30
2018-12-05T02:46:13.911Z,39.23
2018-12-05T02:48:43.275Z,39.73
2018-12-05T02:51:13.113Z,32.57
2018-12-05T02:53:42.072Z,32.00
2018-12-05T02:56:10.421Z,38.80
2018-12-05T02:58:39.031Z,34.00
2018-12-05T03:01:08.135Z,31.30
2018-12-05T03:03:40.674Z,42.20
2018-12-05T03:06:09.052Z,36.50
2018-12-05T03:08:37.441Z,31.10
2018-12-05T03:11:06.225Z,36.90
2018-12-05T03:13:34.639Z,34.83
2018-12-05T03:16:03.031Z,35.57
2018-12-05T03:18:32.143Z,33.00
2018-12-05T03:21:00.546Z,48.80
2018-12-05T03:23:28.962Z,40.37
2018-12-05T03:25:58.609Z,36.70
2018-12-05T03:28:27.120Z,42.37
2018-12-05T03:30:55.563Z,40.17
2018-12-05T03:33:23.932Z,36.83
2018-12-05T03:35:53.756Z,45.43
2018-12-05T03:38:22.374Z,34.77
2018-12-05T03:40:51.184Z,36.17
2018-12-05T03:43:19.554Z,35.40
2018-12-05T03:45:48.375Z,37.50
2018-12-05T03:48:17.642Z,39.17
2018-12-05T03:50:46.030Z,37.67
2018-12-05T03:53:15.209Z,46.23
2018-12-05T03:55:43.896Z,43.73
2018-12-05T03:58:12.688Z,40.07
2018-12-05T04:00:41.090Z,39.20
2018-12-05T04:03:09.478Z,40.70
2018-12-05T04:05:38.228Z,46.73
2018-12-05T04:08:07.289Z,44.03
2018-12-05T04:10:36.495Z,38.03
2018-12-05T04:13:04.846Z,48.23
2018-12-05T04:15:33.211Z,44.33
2018-12-05T04:18:02.026Z,38.23
2018-12-05T04:20:30.407Z,42.90
2018-12-05T04:22:58.779Z,46.07
2018-12-05T04:25:27.357Z,52.70
2018-12-05T04:27:55.767Z,50.33
2018-12-05T04:30:24.413Z,47.10
2018-12-05T04:32:52.798Z,51.77
2018-12-05T04:35:21.611Z,47.87
2018-12-05T04:37:49.986Z,49.83
2018-12-05T04:40:18.333Z,47.77
2018-12-05T04:42:46.727Z,53.07
2018-12-05T04:45:15.097Z,46.30
2018-12-05T04:47:43.441Z,45.30
2018-12-05T04:50:11.946Z,40.53
2018-12-05T04:52:40.307Z,54.60
2018-12-05T04:55:08.949Z,54.37
2018-12-05T04:57:37.623Z,49.47
2018-12-05T05:00:07.877Z,50.30
2018-12-05T05:02:36.257Z,60.50
2018-12-05T05:05:06.447Z,45.10
2018-12-05T05:07:35.207Z,49.30
2018-12-05T05:10:05.142Z,54.47
2018-12-05T05:12:34.417Z,52.47
2018-12-05T05:15:02.778Z,49.70
2018-12-05T05:17:31.427Z,50.13
2018-12-05T05:20:00.349Z,51.23
2018-12-05T05:22:28.749Z,45.30
2018-12-05T05:24:58.680Z,54.10
2018-12-05T05:27:27.542Z,53.50
2018-12-05T05:29:55.936Z,45.93
2018-12-05T05:32:24.318Z,46.83
2018-12-05T05:34:53.535Z,42.77
2018-12-05T05:37:21.874Z,49.97
2018-12-05T05:39:52.186Z,49.77
2018-12-05T05:42:20.600Z,44.93
2018-12-05T05:44:49.687Z,44.33
2018-12-05T05:47:19.114Z,43.57
2018-12-05T05:49:47.896Z,43.17
2018-12-05T05:52:16.526Z,44.50
2018-12-05T05:54:46.575Z,39.80
2018-12-05T05:57:14.999Z,45.17
2018-12-05T05:59:43.720Z,40.23
2018-12-05T06:02:12.610Z,37.97
2018-12-05T06:04:41.004Z,37.23
2018-12-05T06:07:09.662Z,42.20
2018-12-05T06:09:38.034Z,37.17
2018-12-05T06:12:08.778Z,41.17
2018-12-05T06:14:37.994Z,38.80
2018-12-05T06:17:07.922Z,33.70
2018-12-05T06:19:38.790Z,36.03
2018-12-05T06:22:07.178Z,38.60
2018-12-05T06:24:36.406Z,40.27
2018-12-05T06:27:05.209Z,32.37
2018-12-05T06:29:33.750Z,36.77
2018-12-05T06:32:03.263Z,38.07
2018-12-05T06:34:31.692Z,34.80
2018-12-05T06:37:00.697Z,37.00
2018-12-05T06:39:30.295Z,34.47
2018-12-05T06:41:59.027Z,36.60
2018-12-05T06:44:28.399Z,36.80
2018-12-05T06:46:58.577Z,29.70
2018-12-05T06:49:29.113Z,35.03
2018-12-05T06:51:57.904Z,31.67
2018-12-05T06:54:26.322Z,36.57
2018-12-05T06:56:54.963Z,42.33
2018-12-05T06:59:23.922Z,38.03
2018-12-05T07:01:52.762Z,33.47
2018-12-05T07:04:21.800Z,41.43
2018-12-05T07:06:50.843Z,34.60
2018-12-05T07:09:20.059Z,32.57
2018-12-05T07:11:48.426Z,36.37
2018-12-05T07:14:18.244Z,39.13
2018-12-05T07:16:47.160Z,41.07
2018-12-05T07:19:15.546Z,31.67
2018-12-05T07:21:45.118Z,43.03
2018-12-05T07:24:15.994Z,36.13
2018-12-05T07:26:44.437Z,32.10
2018-12-05T07:29:13.077Z,33.80
2018-12-05T07:31:41.635Z,33.80
2018-12-05T07:34:10.578Z,33.83
2018-12-05T07:36:39.496Z,35.80
2018-12-05T07:39:09.911Z,32.27
2018-12-05T07:41:38.284Z,36.20
2018-12-05T07:44:06.644Z,36.10
2018-12-05T07:46:35.481Z,35.90
2018-12-05T07:49:04.707Z,35.80
2018-12-05T07:51:34.160Z,34.13
2018-12-05T07:54:02.566Z,37.23
2018-12-05T07:56:31.531Z,33.47
2018-12-05T07:59:00.469Z,35.50
2018-12-05T08:01:28.862Z,38.20
2018-12-05T08:03:58.137Z,41.33
2018-12-05T08:06:27.181Z,31.97
2018-12-05T08:08:55.638Z,37.37
2018-12-05T08:11:24.721Z,34.13
2018-12-05T08:13:53.374Z,41.20
2018-12-05T08:16:25.482Z,33.80
2018-12-05T08:18:53.838Z,32.27
2018-12-05T08:21:22.214Z,34.70
2018-12-05T08:23:50.965Z,38.03
2018-12-05T08:26:19.836Z,41.47
2018-12-05T08:28:49.364Z,38.20
2018-12-05T08:31:17.731Z,38.30
2018-12-05T08:33:46.127Z,36.97
2018-12-05T08:36:14.927Z,34.00
2018-12-05T08:38:43.331Z,39.53
2018-12-05T08:41:12.407Z,34.53
2018-12-05T08:43:40.766Z,38.80
2018-12-05T08:46:09.171Z,36.33
2018-12-05T08:48:38.174Z,42.23
2018-12-05T08:51:06.950Z,33.00
2018-12-05T08:53:35.301Z,31.20
2018-12-05T08:56:05.088Z,36.13
2018-12-05T08:58:34.795Z,33.60
2018-12-05T09:01:03.537Z,33.83
2018-12-05T09:03:32.368Z,36.73
2018-12-05T09:06:00.798Z,40.77
2018-12-05T09:08:29.950Z,42.87
2018-12-05T09:11:00.582Z,35.27
2018-12-05T09:13:28.974Z,36.73
2018-12-05T09:15:57.409Z,32.97
2018-12-05T09:18:25.849Z,42.00
2018-12-05T09:20:54.234Z,34.83
2018-12-05T09:23:22.618Z,34.57
2018-12-05T09:25:51.380Z,37.20
2018-12-05T09:28:19.754Z,33.20
2018-12-05T09:30:48.158Z,32.70
2018-12-05T09:33:16.510Z,41.67
2018-12-05T09:35:44.961Z,38.90
2018-12-05T09:38:14.260Z,29.27
2018-12-05T09:40:42.925Z,33.40
2018-12-05T09:43:11.339Z,34.83
2018-12-05T09:45:40.523Z,42.80
2018-12-05T09:48:09.841Z,35.13
2018-12-05T09:50:41.356Z,31.47
2018-12-05T09:53:09.751Z,29.43
2018-12-05T09:55:40.303Z,31.03
2018-12-05T09:58:14.905Z,37.00
2018-12-05T10:00:43.265Z,33.03
2018-12-05T10:03:12.239Z,29.23
2018-12-05T10:05:41.627Z,33.33
2018-12-05T10:08:12.992Z,35.50
2018-12-05T10:10:42.203Z,34.87
2018-12-05T10:13:11.878Z,36.30
2018-12-05T10:15:40.466Z,34.67
2018-12-05T10:18:08.862Z,30.33
2018-12-05T10:20:38.604Z,28.50
2018-12-05T10:23:08.064Z,29.27
2018-12-05T10:25:37.589Z,27.30
2018-12-05T10:28:05.969Z,28.23
2018-12-05T10:30:34.656Z,28.50
2018-12-05T10:33:04.268Z,25.23
2018-12-05T10:35:33.174Z,25.10
2018-12-05T10:38:03.090Z,29.07
2018-12-05T10:40:31.693Z,26.03
2018-12-05T10:43:00.398Z,26.70
2018-12-05T10:45:29.210Z,26.70
2018-12-05T10:48:00.494Z,32.90
2018-12-05T10:50:29.731Z,23.10
2018-12-05T10:52:58.282Z,25.73
2018-12-05T10:56:56.640Z,26.73
2018-12-05T10:59:25.424Z,27.60
2018-12-05T11:02:00.096Z,27.00
2018-12-05T11:04:35.102Z,30.87
2018-12-05T11:07:12.247Z,23.87
2018-12-05T11:09:46.562Z,26.07
2018-12-05T11:12:20.766Z,25.13
2018-12-05T11:14:56.281Z,24.67
2018-12-05T11:17:30.197Z,23.97
2018-12-05T11:20:03.874Z,24.47
2018-12-05T11:22:38.885Z,26.87
2018-12-05T11:25:12.734Z,23.53
2018-12-05T11:27:42.689Z,26.10
2018-12-05T11:30:15.233Z,26.43
2018-12-05T11:32:43.988Z,26.30
2018-12-05T11:35:12.575Z,29.07
2018-12-05T11:37:41.187Z,20.20
2018-12-05T11:40:10.055Z,26.07
2018-12-05T11:42:38.795Z,27.90
2018-12-05T11:45:08.681Z,26.70
2018-12-05T11:47:37.622Z,24.73
2018-12-05T11:50:10.942Z,32.47
2018-12-05T11:52:39.583Z,24.43
2018-12-05T11:55:10.613Z,22.37
2018-12-05T11:57:40.019Z,28.43
2018-12-05T12:00:09.263Z,26.47
2018-12-05T12:02:37.656Z,24.73
2018-12-05T12:05:06.922Z,23.13
2018-12-05T12:07:36.199Z,29.10
2018-12-05T12:10:05.756Z,27.50
2018-12-05T12:12:39.656Z,31.57
2018-12-05T12:15:08.760Z,25.37
2018-12-05T12:17:37.384Z,24.43
2018-12-05T12:20:07.639Z,25.47
2018-12-05T12:22:37.966Z,25.30
2018-12-05T12:25:07.185Z,26.93
2018-12-05T12:34:24.203Z,37.20
2018-12-05T12:36:53.515Z,25.77
2018-12-05T12:39:21.930Z,25.23
2018-12-05T12:41:50.416Z,30.83
2018-12-05T12:44:19.037Z,34.90
2018-12-05T12:46:48.382Z,27.63
2018-12-05T12:49:16.839Z,28.00
2018-12-05T12:51:46.039Z,32.20
2018-12-05T12:54:15.221Z,31.33
2018-12-05T12:56:45.440Z,30.27
2018-12-05T12:59:13.810Z,29.30
2018-12-05T13:01:42.683Z,30.37
2018-12-05T13:04:12.031Z,29.33
2018-12-05T13:06:40.829Z,26.13
2018-12-05T13:09:10.145Z,26.33
2018-12-05T13:11:38.916Z,26.73
2018-12-05T13:14:07.316Z,30.47
2018-12-05T13:16:35.675Z,30.27
2018-12-05T13:19:05.313Z,30.80
2018-12-05T13:21:33.989Z,35.30
2018-12-05T13:24:02.383Z,34.13
2018-12-05T13:26:31.016Z,32.70
2018-12-05T13:29:00.089Z,34.40
2018-12-05T13:31:29.426Z,34.50
2018-12-05T13:33:58.458Z,32.50
2018-12-05T13:36:27.253Z,30.67
2018-12-05T13:38:55.607Z,32.40
2018-12-05T13:41:23.975Z,33.60
2018-12-05T13:43:54.091Z,32.67
2018-12-05T13:46:29.698Z,32.03
2018-12-05T13:48:52.830Z,26.80
2018-12-05T13:51:22.662Z,33.43
2018-12-05T13:53:51.026Z,31.77
2018-12-05T13:56:20.455Z,35.80
2018-12-05T13:58:49.738Z,38.33
2018-12-05T14:01:18.113Z,29.30
2018-12-05T14:03:46.545Z,40.80
2018-12-05T14:06:16.382Z,29.57
2018-12-05T14:08:44.738Z,30.90
2018-12-05T14:11:13.958Z,39.60
2018-12-05T14:13:45.344Z,27.60
2018-12-05T14:16:15.320Z,27.53
2018-12-05T14:18:44.518Z,32.27
2018-12-05T14:21:15.036Z,36.33
2018-12-05T14:23:43.402Z,38.00
2018-12-05T14:26:11.866Z,37.10
2018-12-05T14:28:40.288Z,31.30
2018-12-05T14:31:08.929Z,35.33
2018-12-05T14:33:37.350Z,32.47
2018-12-05T14:36:06.764Z,30.50
2018-12-05T14:38:35.894Z,32.67
2018-12-05T14:42:33.737Z,32.57
2018-12-05T14:45:02.802Z,31.40
2018-12-05T14:47:31.887Z,28.53
2018-12-05T14:50:00.252Z,33.93
2018-12-05T14:52:28.625Z,33.90
2018-12-05T14:54:56.983Z,36.60
2018-12-05T14:57:25.353Z,29.73
2018-12-05T14:59:53.745Z,27.47
2018-12-05T15:02:23.022Z,30.00
2018-12-05T15:04:55.505Z,30.27
2018-12-05T15:07:23.832Z,29.30
2018-12-05T15:09:53.178Z,31.47
2018-12-05T15:12:22.210Z,25.73
2018-12-05T15:14:51.139Z,32.80
2018-12-05T15:17:19.621Z,31.60
2018-12-05T15:19:48.005Z,28.40
2018-12-05T15:22:18.097Z,34.40
2018-12-05T15:24:46.943Z,31.30
2018-12-05T15:27:15.512Z,33.17
2018-12-05T15:29:43.877Z,31.77
2018-12-05T15:32:12.605Z,30.33
2018-12-05T15:34:42.006Z,32.00
2018-12-05T15:37:10.377Z,31.70
2018-12-05T15:39:39.194Z,31.23
2018-12-05T15:42:07.811Z,29.47
2018-12-05T15:44:36.186Z,32.57
2018-12-05T15:47:05.400Z,29.43
2018-12-05T15:49:34.349Z,30.37
2018-12-05T15:52:02.755Z,35.00
2018-12-05T15:54:31.306Z,34.60
2018-12-05T15:56:59.678Z,32.13
2018-12-05T15:59:28.085Z,33.33
2018-12-05T16:01:56.504Z,28.60
2018-12-05T16:04:24.862Z,31.27
2018-12-05T16:06:53.237Z,32.03
2018-12-05T16:09:22.226Z,33.00
2018-12-05T16:11:50.887Z,29.57
2018-12-05T16:14:19.288Z,23.20
2018-12-05T16:16:47.682Z,33.57
2018-12-05T16:19:16.158Z,27.37
2018-12-05T16:21:45.926Z,29.50
2018-12-05T16:24:15.212Z,35.40
2018-12-05T16:26:44.284Z,26.67
2018-12-05T16:29:13.023Z,31.90
2018-12-05T16:31:41.405Z,30.80
2018-12-05T16:34:10.255Z,26.00
2018-12-05T16:36:38.625Z,34.13
2018-12-05T16:39:08.814Z,26.30
2018-12-05T16:41:37.177Z,29.37
2018-12-05T16:44:12.666Z,29.63
2018-12-05T16:46:36.805Z,29.40
2018-12-05T16:49:05.337Z,19.87
2018-12-05T16:51:33.775Z,30.63
2018-12-05T16:54:02.171Z,31.80
2018-12-05T16:56:30.605Z,28.50
2018-12-05T16:58:58.987Z,28.73
2018-12-05T17:01:27.373Z,28.80
2018-12-05T17:03:55.732Z,26.77
2018-12-05T17:06:25.903Z,31.77
2018-12-05T17:08:55.365Z,23.30
2018-12-05T17:11:23.739Z,30.20
2018-12-05T17:13:53.067Z,22.53
2018-12-05T17:16:21.448Z,31.97
2018-12-05T17:18:50.288Z,30.10
2018-12-05T17:21:19.939Z,22.37
2018-12-05T17:23:48.696Z,37.87
2018-12-05T17:26:17.338Z,29.50
2018-12-05T17:28:46.354Z,27.30
2018-12-05T17:31:15.766Z,31.47
2018-12-05T17:33:50.912Z,27.80
2018-12-05T17:36:20.216Z,31.13
2018-12-05T17:38:49.856Z,27.77
2018-12-05T17:41:20.726Z,28.43
2018-12-05T17:43:50.650Z,29.43
2018-12-05T17:46:22.535Z,27.27
2018-12-05T17:48:53.372Z,29.43
2018-12-05T17:51:21.914Z,27.93
2018-12-05T17:53:50.340Z,28.67
2018-12-05T17:56:19.147Z,29.77
2018-12-05T17:58:48.578Z,29.13
2018-12-05T18:01:17.073Z,27.27
2018-12-05T18:03:45.466Z,27.13
2018-12-05T18:06:14.264Z,34.87
2018-12-05T18:08:42.699Z,27.63
2018-12-05T18:11:11.068Z,33.23
2018-12-05T18:13:40.406Z,29.47
2018-12-05T18:16:09.331Z,23.93
2018-12-05T18:18:40.710Z,23.10
2018-12-05T18:21:10.301Z,25.37
2018-12-05T18:23:39.451Z,25.53
2018-12-05T18:26:09.956Z,30.60
2018-12-05T18:28:41.087Z,25.67
2018-12-05T18:31:10.189Z,26.13
2018-12-05T18:33:40.033Z,25.47
2018-12-05T18:36:08.867Z,26.27
2018-12-05T18:38:39.511Z,24.57
2018-12-05T18:41:16.025Z,24.17
2018-12-05T18:43:45.485Z,37.40
2018-12-05T18:46:14.693Z,29.73
2018-12-05T18:48:45.204Z,34.57
2018-12-05T18:51:13.842Z,28.23
2018-12-05T18:53:43.298Z,32.43
2018-12-05T18:56:14.486Z,32.80
2018-12-05T18:58:43.174Z,31.23
2018-12-05T19:01:11.972Z,36.90
2018-12-05T19:03:43.083Z,34.70
2018-12-05T19:06:11.870Z,32.37
2018-12-05T19:08:40.696Z,27.83
2018-12-05T19:11:10.444Z,34.47
2018-12-05T19:13:44.365Z,36.10
2018-12-05T19:16:13.347Z,29.10
2018-12-05T19:18:42.428Z,30.70
2018-12-05T19:21:10.835Z,32.57
2018-12-05T19:23:39.301Z,42.10
2018-12-05T19:26:07.787Z,30.37
2018-12-05T19:28:36.283Z,36.17
2018-12-05T19:31:05.565Z,36.53
2018-12-05T19:33:34.355Z,46.83
2018-12-05T19:36:02.778Z,33.57
2018-12-05T19:38:31.570Z,35.17
2018-12-05T19:40:59.932Z,37.90
2018-12-05T19:43:30.035Z,40.57
2018-12-05T19:45:58.662Z,40.77
2018-12-05T19:48:27.899Z,44.93
2018-12-05T19:50:56.264Z,45.90
2018-12-05T19:53:25.079Z,42.97
2018-12-05T19:55:53.665Z,38.03
2018-12-05T19:58:22.064Z,37.30
2018-12-05T20:00:50.418Z,35.03
2018-12-05T20:03:18.814Z,27.70
2018-12-05T20:05:47.668Z,28.47
2018-12-05T20:08:16.037Z,35.33
2018-12-05T20:10:44.843Z,32.33
2018-12-05T20:13:13.808Z,27.57
2018-12-05T20:15:42.284Z,22.73
2018-12-05T20:18:11.199Z,33.80
2018-12-05T20:20:39.601Z,32.43
2018-12-05T20:23:08.044Z,27.87
2018-12-05T20:25:36.444Z,31.47
2018-12-05T20:28:05.716Z,27.90
2018-12-05T20:30:34.415Z,32.80
2018-12-05T20:33:03.767Z,31.37
2018-12-05T20:35:32.488Z,41.53
2018-12-05T20:38:00.846Z,33.00
2018-12-05T20:40:29.950Z,21.53
2018-12-05T20:42:58.351Z,12.40
2018-12-05T20:45:26.735Z,35.70
2018-12-05T20:47:55.780Z,27.17
2018-12-05T20:50:24.717Z,30.67
2018-12-05T20:52:53.795Z,31.63
2018-12-05T20:55:22.197Z,29.80
2018-12-05T20:57:50.623Z,19.70
2018-12-05T21:00:19.419Z,21.80
2018-12-05T21:02:47.791Z,31.33
2018-12-05T21:05:17.327Z,31.67
2018-12-05T21:07:45.697Z,27.10
2018-12-05T21:10:14.514Z,25.70
2018-12-05T21:12:44.133Z,24.83
2018-12-05T21:15:13.751Z,30.57
2018-12-05T21:17:43.641Z,34.83
2018-12-05T21:20:12.052Z,25.17
2018-12-05T21:22:47.239Z,28.47
2018-12-05T21:25:12.542Z,30.07
2018-12-05T21:27:40.919Z,31.70
2018-12-05T21:30:10.171Z,24.53
2018-12-05T21:32:38.580Z,29.50
2018-12-05T21:35:07.878Z,27.07
2018-12-05T21:37:37.395Z,30.63
2018-12-05T21:40:06.744Z,31.97
2018-12-05T21:42:35.134Z,31.10
2018-12-05T21:45:04.151Z,31.40
2018-12-05T21:47:32.936Z,31.60
2018-12-05T21:50:01.374Z,27.00
2018-12-05T21:52:30.126Z,28.83
2018-12-05T21:54:59.057Z,34.13
2018-12-05T21:57:28.387Z,30.17
2018-12-05T21:59:56.840Z,25.87
2018-12-05T22:02:25.278Z,29.23
2018-12-05T22:04:53.642Z,30.20
2018-12-05T22:08:51.585Z,29.30
2018-12-05T22:11:19.975Z,37.87
2018-12-05T22:13:48.701Z,28.60
2018-12-05T22:16:17.100Z,32.20
2018-12-05T22:18:45.861Z,32.30
2018-12-05T22:21:15.129Z,30.23
2018-12-05T22:23:43.982Z,32.13
2018-12-05T22:26:14.175Z,35.17
2018-12-05T22:28:43.119Z,34.43
2018-12-05T22:31:12.305Z,36.90
2018-12-05T22:33:40.713Z,35.07
2018-12-05T22:36:09.103Z,33.70
2018-12-05T22:38:37.502Z,41.70
2018-12-05T22:41:05.867Z,36.20
2018-12-05T22:43:34.238Z,37.80
2018-12-05T22:46:02.633Z,45.67
2018-12-05T22:48:31.003Z,47.20
2018-12-05T22:50:59.391Z,44.93
2018-12-05T22:53:27.762Z,48.83
2018-12-05T22:55:56.114Z,46.17
2018-12-05T22:58:25.264Z,47.27
2018-12-05T23:00:58.094Z,56.70
2018-12-05T23:03:26.476Z,53.57
2018-12-05T23:05:55.656Z,60.03
2018-12-05T23:08:24.034Z,54.60
2018-12-05T23:10:53.416Z,65.50
2018-12-05T23:13:21.779Z,60.77
2018-12-05T23:15:50.174Z,54.73
2018-12-05T23:18:18.543Z,58.87
2018-12-05T23:20:47.617Z,58.83
2018-12-05T23:23:15.987Z,62.30
2018-12-05T23:25:44.362Z,63.30
2018-12-05T23:28:12.855Z,60.73
2018-12-05T23:30:42.128Z,63.87
2018-12-05T23:33:11.335Z,63.83
2018-12-05T23:35:41.100Z,57.27
2018-12-05T23:38:10.907Z,58.47
2018-12-05T23:40:39.293Z,59.77
2018-12-05T23:43:08.133Z,57.70
2018-12-05T23:45:36.929Z,60.00
2018-12-05T23:48:05.317Z,61.80
2018-12-05T23:50:34.365Z,65.17
2018-12-05T23:53:03.206Z,69.83
2018-12-05T23:55:35.389Z,59.53
2018-12-05T23:58:05.290Z,75.13
